Time;durP1;ratioP1;P1;durP2;ratioP2;P2;SDS_P1;SDS_P2;PMS_P1;PMS_P2;Temp;Humidity;BMP_temperature;BMP_pressure;BME280_temperature;BME280_humidity;BME280_pressure;Samples;Min_cycle;Max_cycle;Signal;HPM_P1;HPM_P2
2023/05/25 00:00:12;;;;;;;;;13.33;12.67;;;;;17.91;45.26;101815.84;4999132;28;45519;-72
2023/05/25 00:02:43;;;;;;;;;21.33;19.67;;;;;17.79;45.29;101798.28;5017398;28;45559;-74
2023/05/25 00:05:27;;;;;;;;;12.67;11.67;;;;;17.35;45.91;101749.31;5018420;28;45695;-72
2023/05/25 00:07:56;;;;;;;;;18.00;16.33;;;;;17.33;45.93;101752.88;5018525;28;45531;-74
2023/05/25 00:10:22;;;;;;;;;16.33;12.67;;;;;17.56;46.11;101801.19;5018245;28;45525;-74
2023/05/25 00:12:48;;;;;;;;;14.00;12.00;;;;;17.47;45.98;101788.03;5016721;28;46155;-72
2023/05/25 00:15:20;;;;;;;;;16.67;12.67;;;;;17.52;46.07;101804.75;5017415;28;45611;-72
2023/05/25 00:17:53;;;;;;;;;14.67;12.33;;;;;17.54;45.92;101807.38;5014523;28;45801;-73
2023/05/25 00:20:22;;;;;;;;;14.67;10.67;;;;;17.47;45.90;101782.72;5013910;28;45485;-73
2023/05/25 00:22:48;;;;;;;;;9.00;9.00;;;;;17.17;46.10;101731.81;5016275;28;46237;-75
2023/05/25 00:25:14;;;;;;;;;18.33;16.33;;;;;17.55;46.05;101801.19;5015476;28;45376;-74
2023/05/25 00:27:40;;;;;;;;;16.67;14.67;;;;;17.54;46.44;101794.16;5012506;28;45380;-75
2023/05/25 00:30:06;;;;;;;;;15.67;13.00;;;;;17.46;46.73;101799.50;5013681;28;45710;-73
2023/05/25 00:32:32;;;;;;;;;15.67;9.33;;;;;17.37;46.69;101791.66;5013888;28;45896;-74
2023/05/25 00:34:58;;;;;;;;;8.67;7.00;;;;;17.37;46.69;101786.38;5014303;28;45354;-73
2023/05/25 00:37:26;;;;;;;;;10.00;10.00;;;;;17.37;46.23;101792.53;5012722;28;45455;-74
2023/05/25 00:39:51;;;;;;;;;11.33;9.67;;;;;17.44;46.78;101808.34;5016853;28;45467;-72
2023/05/25 00:42:18;;;;;;;;;14.67;10.67;;;;;17.26;46.76;101770.56;5016332;28;46143;-71
2023/05/25 00:44:44;;;;;;;;;16.67;14.67;;;;;17.46;46.72;101801.28;5013596;28;45693;-73
2023/05/25 00:47:10;;;;;;;;;15.33;12.00;;;;;17.19;46.96;101758.28;5015370;28;45444;-73
2023/05/25 00:49:36;;;;;;;;;10.33;9.00;;;;;17.41;46.69;101792.50;5018080;28;45543;-73
2023/05/25 00:52:06;;;;;;;;;10.33;9.33;;;;;17.42;46.90;101796.91;5017489;28;45846;-75
2023/05/25 00:54:34;;;;;;;;;15.33;11.67;;;;;17.37;47.05;101803.13;5017333;28;45449;-73
2023/05/25 00:57:06;;;;;;;;;17.00;14.33;;;;;17.34;47.42;101803.13;5017282;28;45389;-74
2023/05/25 00:59:40;;;;;;;;;19.00;12.33;;;;;17.23;47.66;101789.13;5013319;28;45545;-74
2023/05/25 01:02:10;;;;;;;;;16.00;14.33;;;;;17.14;47.82;101776.84;5015283;28;45561;-73
2023/05/25 01:04:43;;;;;;;;;15.00;13.00;;;;;17.22;47.81;101797.94;5017075;28;45503;-74
2023/05/25 01:07:11;;;;;;;;;15.00;13.67;;;;;17.10;48.33;101798.94;5013883;28;45693;-74
2023/05/25 01:09:43;;;;;;;;;11.33;11.33;;;;;17.13;48.02;101801.56;5013922;28;45801;-74
2023/05/25 01:12:10;;;;;;;;;15.67;14.33;;;;;17.08;48.26;101794.53;5013082;28;46112;-72
2023/05/25 01:14:39;;;;;;;;;16.33;14.00;;;;;16.94;48.42;101771.75;5012143;28;45448;-73
2023/05/25 01:17:05;;;;;;;;;11.33;10.67;;;;;16.99;48.22;101784.94;5012493;28;45437;-73
2023/05/25 01:19:36;;;;;;;;;15.67;13.67;;;;;16.79;48.78;101753.31;4994700;28;45405;-73
2023/05/25 01:22:27;;;;;;;;;16.33;11.33;;;;;17.00;48.92;101788.44;5012406;28;45401;-76
2023/05/25 01:25:00;;;;;;;;;15.33;12.67;;;;;16.92;48.82;101780.56;5012219;28;45752;-73
2023/05/25 01:28:04;;;;;;;;;13.00;13.00;;;;;16.82;49.21;101755.06;4995874;28;45551;-74
2023/05/25 01:30:32;;;;;;;;;13.00;11.33;;;;;16.99;49.27;101789.31;5010365;28;45439;-72
2023/05/25 01:33:06;;;;;;;;;11.67;9.67;;;;;17.03;49.00;101794.59;4996659;28;45922;-73
2023/05/25 01:35:38;;;;;;;;;10.67;10.67;;;;;16.92;48.78;101778.81;5013939;28;45932;-73
2023/05/25 01:38:05;;;;;;;;;10.33;10.33;;;;;17.08;49.08;101797.19;5012149;28;45376;-76
2023/05/25 01:40:31;;;;;;;;;15.33;10.67;;;;;16.93;49.17;101769.09;5013296;28;45374;-75
2023/05/25 01:43:08;;;;;;;;;10.00;9.67;;;;;17.11;49.16;101807.78;5014381;28;46303;-76
2023/05/25 01:45:35;;;;;;;;;13.67;11.67;;;;;16.54;49.23;101711.16;5015473;28;45439;-73
2023/05/25 01:48:11;;;;;;;;;8.33;8.33;;;;;17.12;49.04;101804.22;5014866;28;45459;-73
2023/05/25 01:51:31;;;;;;;;;10.67;10.67;;;;;17.12;49.35;101801.59;5012557;28;45391;-74
2023/05/25 01:54:04;;;;;;;;;16.33;11.00;;;;;17.02;49.20;101795.50;4970997;28;46290;-72
2023/05/25 01:56:32;;;;;;;;;11.00;10.00;;;;;17.11;49.28;101813.06;5013211;28;45461;-74
2023/05/25 01:59:01;;;;;;;;;11.33;11.00;;;;;16.86;49.18;101775.31;5013442;28;45530;-73
2023/05/25 02:01:28;;;;;;;;;14.67;11.00;;;;;17.04;49.35;101803.44;5012731;28;45484;-74
2023/05/25 02:03:56;;;;;;;;;13.00;12.00;;;;;17.10;49.53;101819.25;5013721;28;45406;-72
2023/05/25 02:06:21;;;;;;;;;19.00;17.33;;;;;17.03;49.77;101807.81;5016628;28;45495;-74
2023/05/25 02:08:47;;;;;;;;;19.33;15.00;;;;;16.69;49.44;101771.00;4996389;28;45365;-74
2023/05/25 02:11:13;;;;;;;;;22.00;16.67;;;;;16.94;49.54;101814.06;5013074;28;45381;-74
2023/05/25 02:13:39;;;;;;;;;15.67;12.67;;;;;16.81;49.89;101814.16;5015472;28;46011;-72
2023/05/25 02:16:06;;;;;;;;;9.33;9.33;;;;;16.65;49.84;101806.28;5016035;28;45364;-73
2023/05/25 02:18:33;;;;;;;;;15.33;14.67;;;;;16.67;49.92;101823.03;5020945;28;45665;-72
2023/05/25 02:21:00;;;;;;;;;15.00;13.33;;;;;16.55;49.96;101796.66;5022843;28;45443;-73
2023/05/25 02:23:26;;;;;;;;;8.67;8.67;;;;;16.63;49.70;101817.75;5018077;28;46636;-73
2023/05/25 02:25:51;;;;;;;;;14.33;11.67;;;;;16.44;49.61;101790.53;5015929;28;45749;-73
2023/05/25 02:28:20;;;;;;;;;16.33;10.33;;;;;16.41;49.88;101782.63;5020341;28;45233;-73
2023/05/25 02:30:45;;;;;;;;;16.33;12.67;;;;;16.50;49.87;101812.53;5019652;28;45302;-74
2023/05/25 02:33:12;;;;;;;;;20.67;16.67;;;;;16.38;50.19;101814.38;5015804;28;46394;-73
2023/05/25 02:35:38;;;;;;;;;17.67;14.33;;;;;16.30;50.20;101817.94;5015713;28;45460;-72
2023/05/25 02:38:04;;;;;;;;;16.67;14.00;;;;;16.01;49.95;101781.03;5016444;28;45804;-72
2023/05/25 02:40:30;;;;;;;;;20.33;15.33;;;;;16.02;49.97;101792.50;5014921;28;45779;-73
2023/05/25 02:42:56;;;;;;;;;11.67;11.33;;;;;16.10;50.31;101825.06;5019207;28;45518;-73
2023/05/25 02:45:21;;;;;;;;;18.00;12.00;;;;;15.93;50.30;101785.47;5018741;28;45551;-73
2023/05/25 02:47:47;;;;;;;;;14.00;13.00;;;;;16.06;50.13;101803.06;5015692;28;45498;-75
2023/05/25 02:50:13;;;;;;;;;14.67;14.00;;;;;16.03;50.09;101797.78;5015708;28;45765;-73
2023/05/25 02:52:38;;;;;;;;;15.33;12.33;;;;;15.98;50.12;101796.03;5014623;28;46437;-73
2023/05/25 02:55:04;;;;;;;;;16.33;12.00;;;;;16.08;50.52;101817.13;5018651;28;45760;-73
2023/05/25 02:57:31;;;;;;;;;14.33;11.00;;;;;16.18;50.37;101836.47;5019942;28;45757;-72
2023/05/25 02:59:56;;;;;;;;;12.33;10.67;;;;;16.21;50.33;101839.13;5019791;28;45400;-74
2023/05/25 03:02:24;;;;;;;;;12.33;11.67;;;;;16.29;50.12;101847.03;5015331;28;46209;-73
2023/05/25 03:04:52;;;;;;;;;16.00;13.00;;;;;16.24;50.15;101832.94;5015230;28;45503;-71
2023/05/25 03:07:24;;;;;;;;;15.00;14.00;;;;;16.26;50.03;101836.47;5015128;28;45680;-72
2023/05/25 03:09:50;;;;;;;;;17.67;12.00;;;;;16.17;50.11;101834.72;5018190;28;45697;-73
2023/05/25 03:12:19;;;;;;;;;19.33;16.00;;;;;16.04;50.11;101830.34;5018496;28;46098;-73
2023/05/25 03:14:45;;;;;;;;;16.00;12.33;;;;;16.07;50.68;101851.50;5014717;28;45309;-72
2023/05/25 03:17:10;;;;;;;;;17.33;13.67;;;;;15.94;50.94;101862.97;4997338;28;45448;-75
2023/05/25 03:19:36;;;;;;;;;16.33;14.33;;;;;15.86;50.79;101852.44;5015700;28;45661;-73
2023/05/25 03:22:03;;;;;;;;;17.33;15.33;;;;;15.83;50.95;101845.41;5014268;28;45928;-74
2023/05/25 03:24:29;;;;;;;;;17.50;15.25;;;;;15.76;50.95;101856.84;5017909;28;45441;-74
2023/05/25 03:26:55;;;;;;;;;18.67;14.67;;;;;15.40;51.30;101810.19;5017193;28;45755;-74
2023/05/25 03:29:20;;;;;;;;;21.00;12.67;;;;;15.37;51.41;101820.78;5018808;28;45537;-73
2023/05/25 03:31:46;;;;;;;;;14.00;11.67;;;;;15.45;51.66;101833.09;5018650;28;46158;-72
2023/05/25 03:34:12;;;;;;;;;11.67;9.67;;;;;15.69;51.53;101879.72;5019120;28;45285;-74
2023/05/25 03:36:38;;;;;;;;;9.00;8.33;;;;;15.63;51.19;101858.59;5018506;28;45435;-72
2023/05/25 03:39:08;;;;;;;;;12.67;11.00;;;;;15.68;51.13;101861.22;5019323;28;45268;-74
2023/05/25 03:41:34;;;;;;;;;17.67;10.67;;;;;15.66;50.72;101855.06;5018014;28;46242;-74
2023/05/25 03:44:00;;;;;;;;;12.00;11.67;;;;;15.81;50.95;101878.84;5015001;28;45459;-73
2023/05/25 03:46:26;;;;;;;;;15.33;11.33;;;;;15.66;51.02;101849.78;5015612;28;45527;-73
2023/05/25 03:48:51;;;;;;;;;12.33;9.67;;;;;15.87;51.15;101888.53;5014549;28;45531;-73
2023/05/25 03:51:18;;;;;;;;;8.00;7.33;;;;;15.95;50.80;101888.53;5013788;28;45993;-73
2023/05/25 03:53:43;;;;;;;;;8.67;8.33;;;;;15.77;50.95;101844.53;4996462;28;45499;-73
2023/05/25 03:56:09;;;;;;;;;10.67;9.00;;;;;15.99;50.79;101887.63;5021670;28;45762;-74
2023/05/25 03:58:34;;;;;;;;;8.67;8.67;;;;;16.00;50.80;101879.72;5035932;28;45570;-72
2023/05/25 04:01:01;;;;;;;;;13.67;10.00;;;;;15.86;50.86;101839.22;5022808;28;45837;-73
2023/05/25 04:03:28;;;;;;;;;13.00;8.67;;;;;16.09;50.40;101882.31;5014650;28;45467;-73
2023/05/25 04:05:53;;;;;;;;;14.00;11.00;;;;;16.05;50.44;101871.78;5017468;28;45444;-72
2023/05/25 04:08:19;;;;;;;;;9.67;9.67;;;;;15.92;50.89;101847.13;5001044;28;45377;-74
2023/05/25 04:10:45;;;;;;;;;13.00;12.00;;;;;16.05;50.46;101862.06;5018458;28;45564;-74
2023/05/25 04:13:11;;;;;;;;;14.00;9.67;;;;;16.09;50.29;101877.03;5018566;28;45498;-73
2023/05/25 04:15:37;;;;;;;;;15.33;11.67;;;;;15.97;50.73;101842.72;5016438;28;45642;-73
2023/05/25 04:18:04;;;;;;;;;9.00;7.67;;;;;16.05;50.84;101864.72;5014091;28;45358;-73
2023/05/25 04:20:30;;;;;;;;;11.00;10.33;;;;;16.12;50.65;101889.38;5014004;28;45395;-72
2023/05/25 04:22:56;;;;;;;;;13.67;10.67;;;;;15.82;50.42;101832.19;5015787;28;45273;-73
2023/05/25 04:25:22;;;;;;;;;10.67;10.67;;;;;15.73;50.34;101811.97;5018162;28;45709;-73
2023/05/25 04:27:48;;;;;;;;;15.67;11.67;;;;;15.83;50.67;101832.19;5016502;28;45569;-73
2023/05/25 04:30:14;;;;;;;;;10.33;10.33;;;;;16.11;50.62;101869.09;5013393;28;46502;-73
2023/05/25 04:32:40;;;;;;;;;14.67;10.00;;;;;16.10;50.46;101881.44;5013493;28;45851;-73
2023/05/25 04:35:06;;;;;;;;;17.00;10.33;;;;;16.09;50.41;101879.69;5013154;28;45723;-73
2023/05/25 04:37:36;;;;;;;;;14.33;9.33;;;;;16.10;50.62;101870.00;5013705;28;45936;-74
2023/05/25 04:40:07;;;;;;;;;12.00;10.33;;;;;16.19;50.33;101885.81;5013309;28;45405;-78
2023/05/25 04:42:33;;;;;;;;;13.00;11.00;;;;;15.84;50.64;101828.66;5013583;28;45439;-73
2023/05/25 04:44:59;;;;;;;;;12.33;11.67;;;;;16.16;50.51;101887.56;5014052;28;45537;-75
2023/05/25 04:47:24;;;;;;;;;11.33;9.33;;;;;16.22;52.22;101885.81;5013812;28;45533;-71
2023/05/25 04:49:50;;;;;;;;;17.00;11.33;;;;;16.30;50.26;101891.06;5012323;28;45736;-75
2023/05/25 04:52:16;;;;;;;;;10.33;10.00;;;;;16.32;49.96;101890.19;4995360;28;45428;-74
2023/05/25 04:54:42;;;;;;;;;16.67;14.33;;;;;16.26;49.98;101879.63;5013730;28;45340;-74
2023/05/25 04:57:07;;;;;;;;;14.00;12.00;;;;;16.35;50.11;101893.69;5014231;28;45760;-72
2023/05/25 04:59:33;;;;;;;;;11.00;10.00;;;;;16.26;50.01;101894.63;5013105;28;46289;-72
2023/05/25 05:02:02;;;;;;;;;11.33;10.00;;;;;16.36;49.74;101893.69;5013549;28;45432;-74
2023/05/25 05:04:27;;;;;;;;;12.33;10.67;;;;;16.38;49.58;101891.06;5016184;28;45370;-72
2023/05/25 05:06:53;;;;;;;;;17.00;13.00;;;;;16.43;49.70;101883.97;5017564;28;45447;-73
2023/05/25 05:09:19;;;;;;;;;16.33;15.00;;;;;16.42;49.43;101885.75;5016731;28;45458;-72
2023/05/25 05:11:44;;;;;;;;;15.00;14.33;;;;;16.35;49.51;101875.19;5015449;28;45571;-72
2023/05/25 05:14:10;;;;;;;;;12.33;11.00;;;;;16.43;49.40;101903.38;5013051;28;45461;-72
2023/05/25 05:16:36;;;;;;;;;18.33;14.67;;;;;16.32;49.76;101891.94;5013200;28;45880;-72
2023/05/25 05:19:02;;;;;;;;;16.67;13.33;;;;;16.13;49.91;101898.16;5012409;28;46395;-73
2023/05/25 05:21:28;;;;;;;;;18.00;17.33;;;;;16.11;49.82;101909.63;5012673;28;45921;-73
2023/05/25 05:23:54;;;;;;;;;23.00;16.67;;;;;16.05;49.89;101911.41;5012355;28;45458;-73
2023/05/25 05:26:20;;;;;;;;;17.67;14.33;;;;;16.11;49.92;101925.50;5012858;28;45457;-73
2023/05/25 05:28:46;;;;;;;;;15.67;14.33;;;;;15.97;49.78;101910.53;5012144;28;45749;-72
2023/05/25 05:31:12;;;;;;;;;16.00;13.67;;;;;16.04;50.02;101931.69;5012360;28;45522;-72
2023/05/25 05:33:38;;;;;;;;;13.75;11.75;;;;;16.05;50.06;101935.19;5015998;28;45715;-73
2023/05/25 05:36:04;;;;;;;;;20.50;15.75;;;;;15.89;49.88;101895.56;5016906;28;45578;-73
2023/05/25 05:38:30;;;;;;;;;15.33;13.67;;;;;16.13;49.72;101922.81;5012910;28;45678;-72
2023/05/25 05:40:55;;;;;;;;;16.33;13.00;;;;;16.30;49.26;101928.06;5012670;28;45462;-72
2023/05/25 05:43:21;;;;;;;;;19.00;17.00;;;;;16.32;48.90;101928.94;5012223;28;45623;-72
2023/05/25 05:45:50;;;;;;;;;21.50;19.00;;;;;16.31;48.59;101932.50;5012626;28;45495;-72
2023/05/25 05:48:16;;;;;;;;;16.00;16.00;;;;;16.25;49.20;101945.72;5015182;28;45791;-72
2023/05/25 05:50:42;;;;;;;;;16.33;14.00;;;;;16.19;48.88;101945.75;5015699;28;45317;-74
2023/05/25 05:53:08;;;;;;;;;15.67;13.00;;;;;16.25;49.23;101940.44;5013711;28;45408;-73
2023/05/25 05:55:34;;;;;;;;;13.33;11.33;;;;;16.31;49.39;101940.44;5017836;28;46103;-73
2023/05/25 05:58:00;;;;;;;;;16.67;12.00;;;;;16.43;49.19;101948.31;5020153;28;46055;-73
2023/05/25 06:00:25;;;;;;;;;11.00;10.67;;;;;16.49;48.88;101948.31;5015176;28;45452;-73
2023/05/25 06:02:51;;;;;;;;;17.33;14.33;;;;;16.63;48.59;101944.72;5015444;28;45478;-73
2023/05/25 06:05:18;;;;;;;;;13.33;13.00;;;;;16.69;48.45;101940.28;5015000;28;45403;-73
2023/05/25 06:07:44;;;;;;;;;12.67;11.00;;;;;16.88;47.95;101957.00;5016223;28;45546;-72
2023/05/25 06:10:10;;;;;;;;;12.67;10.00;;;;;16.98;47.88;101956.97;5018215;28;45557;-73
2023/05/25 06:12:36;;;;;;;;;19.33;14.00;;;;;16.97;47.57;101958.72;5015397;28;45372;-73
2023/05/25 06:15:05;;;;;;;;;16.33;14.00;;;;;16.75;47.12;101953.50;4997680;28;45727;-74
2023/05/25 06:17:31;;;;;;;;;17.00;14.33;;;;;16.50;47.91;101931.53;5015072;28;46182;-73
2023/05/25 06:19:57;;;;;;;;;18.67;15.00;;;;;16.75;47.97;101973.75;5019569;28;45353;-73
2023/05/25 06:22:26;;;;;;;;;18.67;13.00;;;;;16.71;48.16;101969.41;5015196;28;45451;-73
2023/05/25 06:24:52;;;;;;;;;15.67;13.33;;;;;16.60;47.19;101955.31;5015550;28;45532;-73
2023/05/25 06:27:22;;;;;;;;;15.33;15.33;;;;;16.45;47.56;101953.63;5017860;28;46291;-72
2023/05/25 06:29:48;;;;;;;;;23.50;17.00;;;;;16.26;48.05;101948.38;5019849;28;45494;-73
2023/05/25 06:32:14;;;;;;;;;11.00;6.33;;;;;16.20;48.08;101956.28;4997714;28;45704;-73
2023/05/25 06:34:40;;;;;;;;;19.67;13.33;;;;;16.37;48.73;101968.59;4997881;28;45415;-73
2023/05/25 06:37:05;;;;;;;;;15.67;12.67;;;;;16.52;48.49;101964.16;5015348;28;46080;-72
2023/05/25 06:39:35;;;;;;;;;18.67;14.33;;;;;16.63;48.10;101974.69;5016982;28;45526;-73
2023/05/25 06:42:04;;;;;;;;;15.67;13.00;;;;;16.64;47.58;101943.84;5019993;28;45337;-73
2023/05/25 06:44:30;;;;;;;;;15.00;14.67;;;;;16.88;47.02;101962.28;5019948;28;45384;-73
2023/05/25 06:46:55;;;;;;;;;22.00;15.67;;;;;16.84;46.96;101973.75;5018106;28;46330;-73
2023/05/25 06:49:21;;;;;;;;;12.00;11.00;;;;;16.88;46.92;101970.22;5018948;28;45635;-73
2023/05/25 06:51:50;;;;;;;;;16.00;11.33;;;;;16.79;47.91;101921.78;5019870;28;45526;-73
2023/05/25 06:54:16;;;;;;;;;16.00;12.33;;;;;17.09;46.57;101961.31;4999325;28;45431;-72
2023/05/25 06:56:42;;;;;;;;;17.67;11.67;;;;;16.94;46.47;101929.59;5014583;28;45416;-72
2023/05/25 06:59:07;;;;;;;;;12.00;9.00;;;;;16.91;46.49;101916.41;5014589;28;45516;-73
2023/05/25 07:01:33;;;;;;;;;9.33;9.33;;;;;17.21;46.25;101930.38;5014729;28;45576;-74
2023/05/25 07:03:59;;;;;;;;;12.33;10.33;;;;;17.45;45.85;101958.44;5015573;28;45667;-72
2023/05/25 07:06:24;;;;;;;;;12.33;9.67;;;;;17.58;45.77;101961.00;5014644;28;46079;-73
2023/05/25 07:08:50;;;;;;;;;17.67;12.33;;;;;17.56;45.24;101935.41;5014727;28;45908;-73
2023/05/25 07:11:19;;;;;;;;;15.67;13.67;;;;;17.62;45.36;101943.28;5015123;28;45396;-73
2023/05/25 07:13:45;;;;;;;;;18.67;12.00;;;;;17.79;44.97;101964.34;5015453;28;45563;-71
2023/05/25 07:16:11;;;;;;;;;9.00;9.00;;;;;17.77;44.71;101952.88;5016152;28;46541;-72
2023/05/25 07:18:40;;;;;;;;;12.33;9.67;;;;;18.00;46.04;101961.53;5017693;28;45543;-70
2023/05/25 07:21:08;;;;;;;;;15.67;11.33;;;;;18.09;44.66;101963.22;5015490;28;45625;-72
2023/05/25 07:23:35;;;;;;;;;12.33;11.00;;;;;17.79;43.51;101933.41;5015157;28;45373;-72
2023/05/25 07:26:01;;;;;;;;;14.33;11.67;;;;;17.74;44.04;101969.69;5014159;28;46382;-71
2023/05/25 07:28:27;;;;;;;;;11.00;9.33;;;;;17.78;44.02;101978.50;5014992;28;45879;-73
2023/05/25 07:30:52;;;;;;;;;14.67;11.67;;;;;17.78;44.14;101952.00;5018100;28;45513;-73
2023/05/25 07:33:18;;;;;;;;;15.67;12.67;;;;;17.85;45.73;101952.88;5015474;28;45361;-74
2023/05/25 07:35:43;;;;;;;;;18.33;16.33;;;;;18.01;45.41;101957.13;5014973;28;45607;-72
2023/05/25 07:38:09;;;;;;;;;12.00;10.67;;;;;18.21;43.94;101957.81;5014868;28;45456;-71
2023/05/25 07:40:35;;;;;;;;;12.33;10.00;;;;;18.41;44.43;101964.66;5015177;28;45367;-72
2023/05/25 07:43:04;;;;;;;;;11.33;9.67;;;;;18.47;41.98;101969.91;5014908;28;45423;-74
2023/05/25 07:45:30;;;;;;;;;14.33;11.33;;;;;18.29;41.78;101962.16;5015370;28;45789;-73
2023/05/25 07:47:56;;;;;;;;;13.67;10.33;;;;;18.03;42.61;101934.13;5014560;28;45484;-70
2023/05/25 07:50:22;;;;;;;;;11.00;10.00;;;;;18.02;42.34;101954.44;5014475;28;45648;-71
2023/05/25 07:52:48;;;;;;;;;12.67;9.33;;;;;18.06;42.80;101965.91;5014908;28;45423;-71
2023/05/25 07:55:13;;;;;;;;;8.33;7.33;;;;;18.20;43.41;101965.78;4995347;28;46542;-72
2023/05/25 07:57:39;;;;;;;;;6.00;5.00;;;;;18.36;42.69;101967.34;5018796;28;45496;-72
2023/05/25 08:00:07;;;;;;;;;8.67;8.67;;;;;18.38;42.56;101943.47;5018756;28;45459;-73
2023/05/25 08:02:33;;;;;;;;;12.67;10.00;;;;;18.45;42.43;101950.47;5019188;28;45500;-70
2023/05/25 08:05:03;;;;;;;;;11.33;9.00;;;;;18.23;41.48;101940.09;5015585;28;46039;-81
2023/05/25 08:07:30;;;;;;;;;11.00;9.67;;;;;18.26;41.05;101965.72;5014514;28;45431;-73
2023/05/25 08:09:55;;;;;;;;;11.67;9.33;;;;;18.13;41.45;101970.28;5017648;28;45441;-73
2023/05/25 08:12:21;;;;;;;;;11.00;10.67;;;;;18.09;41.27;101963.22;5018060;28;45402;-73
2023/05/25 08:14:47;;;;;;;;;6.00;5.00;;;;;18.11;41.86;101960.56;5017608;28;45471;-73
2023/05/25 08:17:13;;;;;;;;;8.67;6.33;;;;;18.32;42.09;101967.41;5018480;28;45427;-73
2023/05/25 08:19:38;;;;;;;;;7.67;5.33;;;;;18.44;41.39;101956.69;5014268;28;45538;-70
2023/05/25 08:22:05;;;;;;;;;9.33;8.00;;;;;18.57;39.95;101970.69;5014033;28;45321;-74
2023/05/25 08:24:30;;;;;;;;;8.33;8.33;;;;;18.49;40.19;101957.50;5016366;28;46241;-72
2023/05/25 08:26:56;;;;;;;;;8.00;7.33;;;;;18.22;39.83;101879.13;5018596;28;45277;-81
2023/05/25 08:29:21;;;;;;;;;14.00;9.00;;;;;18.81;40.08;101958.91;5018427;28;45333;-79
2023/05/25 08:31:48;;;;;;;;;10.33;7.33;;;;;18.72;39.57;101929.81;5018879;28;45448;-78
2023/05/25 08:34:15;;;;;;;;;7.33;6.67;;;;;18.98;38.20;101964.91;5018622;28;45555;-77
2023/05/25 08:36:41;;;;;;;;;9.33;7.33;;;;;18.85;38.48;101965.94;5018427;28;45515;-77
2023/05/25 08:39:07;;;;;;;;;9.67;6.33;;;;;18.68;38.14;101947.56;5018468;28;45368;-79
2023/05/25 08:41:36;;;;;;;;;7.00;6.00;;;;;18.49;38.67;101924.81;5017451;28;45371;-74
2023/05/25 08:44:05;;;;;;;;;8.67;6.67;;;;;18.57;38.33;101960.06;5013570;28;46198;-80
2023/05/25 08:46:31;;;;;;;;;6.33;6.33;;;;;18.50;38.84;101958.38;5015467;28;45475;-77
2023/05/25 08:49:10;;;;;;;;;7.67;5.33;;;;;18.45;38.59;101969.03;5018490;28;45500;-77
2023/05/25 08:51:37;;;;;;;;;7.00;6.00;;;;;18.47;39.00;101967.25;5018643;28;45412;-72
2023/05/25 08:54:12;;;;;;;;;7.33;7.33;;;;;18.49;39.34;101960.16;5014634;28;46276;-73
2023/05/25 08:56:50;;;;;;;;;12.67;8.67;;;;;18.56;38.40;101983.06;5015706;28;45665;-70
2023/05/25 08:59:36;;;;;;;;;7.33;5.00;;;;;18.67;40.20;101969.66;5018137;28;45411;-70
2023/05/25 09:02:15;;;;;;;;;9.67;8.00;;;;;18.81;39.60;101950.94;5018583;28;45385;-74
2023/05/25 09:04:42;;;;;;;;;11.67;9.00;;;;;19.07;39.02;101967.41;5016577;28;47476;-71
2023/05/25 09:07:08;;;;;;;;;9.67;7.00;;;;;19.15;37.17;101962.00;5015908;28;45305;-72
2023/05/25 09:09:35;;;;;;;;;12.00;5.00;;;;;19.16;38.67;101958.44;5015005;28;45432;-71
2023/05/25 09:12:03;;;;;;;;;6.33;4.33;;;;;19.37;39.01;101954.59;5013530;28;45495;-71
2023/05/25 09:14:30;;;;;;;;;5.00;4.33;;;;;19.59;38.28;101962.22;5013520;28;45431;-72
2023/05/25 09:16:57;;;;;;;;;7.33;5.33;;;;;19.69;37.37;101961.22;5012161;28;45529;-70
2023/05/25 09:19:22;;;;;;;;;8.00;5.67;;;;;19.84;37.99;101957.44;5013875;28;45322;-72
2023/05/25 09:21:48;;;;;;;;;6.33;5.33;;;;;19.95;39.36;101949.25;4994910;28;45912;-72
2023/05/25 09:24:15;;;;;;;;;7.67;5.33;;;;;20.12;38.01;101961.34;5011171;28;46700;-69
2023/05/25 09:26:43;;;;;;;;;8.67;6.00;;;;;20.24;37.28;101965.56;5012664;28;45497;-70
2023/05/25 09:29:11;;;;;;;;;8.67;7.33;;;;;20.17;35.12;101963.03;5016250;28;45483;-70
2023/05/25 09:31:37;;;;;;;;;7.33;5.33;;;;;20.09;35.91;101949.88;5012530;28;45528;-70
2023/05/25 09:34:10;;;;;;;;;9.67;8.00;;;;;20.13;35.62;101971.06;5013099;28;45323;-72
2023/05/25 09:36:39;;;;;;;;;6.00;4.67;;;;;19.91;37.48;101938.69;5013076;28;45715;-72
2023/05/25 09:39:08;;;;;;;;;5.33;5.33;;;;;20.07;36.42;101968.56;5012145;28;45535;-72
2023/05/25 09:41:40;;;;;;;;;8.67;6.33;;;;;20.13;37.42;101948.94;5015049;28;45853;-71
2023/05/25 09:44:06;;;;;;;;;7.00;5.00;;;;;20.13;36.77;101940.94;5017577;28;45602;-72
2023/05/25 09:46:35;;;;;;;;;7.67;6.33;;;;;20.13;35.62;101927.66;4998002;28;46011;-74
2023/05/25 09:49:10;;;;;;;;;7.67;7.33;;;;;20.40;35.49;101951.97;5011719;28;45455;-71
2023/05/25 09:51:35;;;;;;;;;6.00;6.00;;;;;20.29;36.06;101934.44;5015696;28;45459;-74
2023/05/25 09:54:08;;;;;;;;;7.00;6.00;;;;;20.46;34.83;101951.84;5013653;28;45571;-72
2023/05/25 09:56:35;;;;;;;;;10.00;7.00;;;;;20.38;34.58;101946.66;5013625;28;45392;-71
2023/05/25 09:59:01;;;;;;;;;9.67;6.00;;;;;20.16;34.75;101948.88;5017294;28;45332;-72
2023/05/25 10:01:27;;;;;;;;;7.33;7.33;;;;;19.99;34.21;101958.94;5015182;28;45548;-72
2023/05/25 10:03:58;;;;;;;;;8.00;6.67;;;;;19.85;35.91;101959.19;5012475;28;45602;-72
2023/05/25 10:06:24;;;;;;;;;8.00;6.00;;;;;19.93;34.60;101962.56;5011789;28;45599;-71
2023/05/25 10:08:51;;;;;;;;;8.33;6.33;;;;;20.05;34.42;101957.06;5012686;28;45524;-72
2023/05/25 10:11:20;;;;;;;;;7.00;4.33;;;;;20.10;34.93;101955.19;5016901;28;45514;-72
2023/05/25 10:13:46;;;;;;;;;7.00;5.67;;;;;20.29;36.14;101968.16;5013007;28;47920;-72
2023/05/25 10:16:17;;;;;;;;;8.67;7.00;;;;;20.39;34.09;101953.75;4994389;28;45717;-72
2023/05/25 10:18:53;;;;;;;;;7.00;5.33;;;;;20.54;34.79;101968.53;5014318;28;45366;-73
2023/05/25 10:21:21;;;;;;;;;6.00;6.00;;;;;20.74;33.73;101976.16;5010789;28;45454;-72
2023/05/25 10:23:53;;;;;;;;;8.33;6.00;;;;;20.58;33.55;101967.59;5012634;28;45792;-73
2023/05/25 10:26:25;;;;;;;;;7.33;6.00;;;;;20.38;34.57;101936.00;5012526;28;45450;-73
2023/05/25 10:28:54;;;;;;;;;6.00;5.00;;;;;20.66;34.88;101968.31;5012376;28;45428;-73
2023/05/25 10:31:20;;;;;;;;;8.67;7.00;;;;;20.72;35.62;101977.97;5013135;28;45782;-73
2023/05/25 10:33:50;;;;;;;;;6.00;6.00;;;;;20.66;35.72;101951.47;4994983;28;46385;-74
2023/05/25 10:36:18;;;;;;;;;7.00;5.67;;;;;20.93;33.68;101977.53;5015314;28;45416;-73
2023/05/25 10:38:44;;;;;;;;;7.00;6.33;;;;;20.85;33.07;101963.47;5014979;28;45420;-73
2023/05/25 10:41:10;;;;;;;;;10.00;7.00;;;;;20.73;33.53;101948.66;5016016;28;45490;-73
2023/05/25 10:43:38;;;;;;;;;9.00;7.33;;;;;20.91;34.96;101954.50;4997219;28;47456;-74
2023/05/25 10:46:05;;;;;;;;;9.33;6.33;;;;;21.06;34.30;101971.94;5014874;28;45818;-73
2023/05/25 10:48:36;;;;;;;;;5.33;5.33;;;;;21.04;34.02;101941.78;5015862;28;45638;-75
2023/05/25 10:51:02;;;;;;;;;8.00;6.67;;;;;21.13;33.88;101966.41;5018574;28;45451;-73
2023/05/25 10:53:27;;;;;;;;;8.33;7.00;;;;;20.91;33.56;101939.41;5015719;28;46531;-74
2023/05/25 10:55:53;;;;;;;;;7.00;7.00;;;;;21.00;34.17;101967.63;5015353;28;45932;-74
2023/05/25 10:58:21;;;;;;;;;8.33;5.67;;;;;21.09;34.32;101958.53;5015889;28;45510;-74
2023/05/25 11:01:19;;;;;;;;;11.67;7.33;;;;;21.14;34.00;101965.53;5017888;28;45571;-75
2023/05/25 11:03:53;;;;;;;;;7.67;6.67;;;;;21.14;33.22;101956.63;5003678;28;46458;-74
2023/05/25 11:06:21;;;;;;;;;8.33;7.67;;;;;21.25;33.86;101945.75;5002435;28;45687;-73
2023/05/25 11:09:06;;;;;;;;;7.67;6.33;;;;;21.31;33.75;101941.16;5014898;28;45458;-74
2023/05/25 11:11:46;;;;;;;;;7.00;6.33;;;;;21.55;33.20;101952.19;5016707;28;45603;-73
2023/05/25 11:14:41;;;;;;;;;7.00;7.00;;;;;21.50;33.02;101932.75;5015051;28;45610;-74
2023/05/25 11:17:13;;;;;;;;;6.33;6.33;;;;;21.79;32.78;101943.56;5012182;28;45419;-75